Time,TemperatureF,DewpointF,PressureIn,WindDirection,WindDirectionDegrees,WindSpeedMPH,WindSpeedGustMPH,Humidity,HourlyPrecipIn,Conditions,Clouds,dailyrainin,SoftwareType,DateUTC
2013-10-11 00:06:00,76.6,74.0,29.88,SE,139,0.0,1.0,92,0.00,,,0.00,weatherlink.com 1.10,2013-10-11 04:06:00,
2013-10-11 00:21:00,76.6,74.0,29.88,SW,236,0.0,1.0,92,0.00,,,0.00,weatherlink.com 1.10,2013-10-11 04:21:00,
2013-10-11 00:36:00,76.6,75.0,29.87,SW,236,0.0,0.0,93,0.00,,,0.00,weatherlink.com 1.10,2013-10-11 04:36:00,
2013-10-11 00:51:00,76.5,74.0,29.86,SSE,148,0.0,1.0,92,0.00,,,0.00,weatherlink.com 1.10,2013-10-11 04:51:00,
2013-10-11 01:06:00,76.5,74.0,29.86,SE,141,0.0,1.0,92,0.00,,,0.00,weatherlink.com 1.10,2013-10-11 05:06:00,
2013-10-11 01:21:00,76.4,74.0,29.86,SE,139,0.0,1.0,92,0.00,,,0.00,weatherlink.com 1.10,2013-10-11 05:21:00,
2013-10-11 01:36:00,76.3,74.0,29.85,SE,139,0.0,0.0,93,0.00,,,0.00,weatherlink.com 1.10,2013-10-11 05:36:00,
2013-10-11 01:51:00,76.0,74.0,29.84,SE,139,0.0,1.0,93,0.00,,,0.00,weatherlink.com 1.10,2013-10-11 05:51:00,
2013-10-11 02:06:00,76.1,74.0,29.84,SE,140,0.0,1.0,92,0.00,,,0.00,weatherlink.com 1.10,2013-10-11 06:06:00,
2013-10-11 02:21:00,76.0,74.0,29.84,East,93,2.0,2.0,92,0.00,,,0.00,weatherlink.com 1.10,2013-10-11 06:21:00,
2013-10-11 02:36:00,75.9,73.0,29.84,ENE,77,4.0,8.0,91,0.08,,,0.08,weatherlink.com 1.10,2013-10-11 06:36:00,
2013-10-11 02:51:00,75.5,73.0,29.83,WSW,253,0.0,2.0,93,0.15,,,0.15,weatherlink.com 1.10,2013-10-11 06:51:00,
2013-10-11 03:06:00,75.6,74.0,29.84,SSE,155,0.0,1.0,94,0.15,,,0.15,weatherlink.com 1.10,2013-10-11 07:06:00,
2013-10-11 03:21:00,75.6,74.0,29.83,SE,133,1.0,4.0,93,0.15,,,0.15,weatherlink.com 1.10,2013-10-11 07:21:00,
2013-10-11 03:36:00,75.5,74.0,29.84,SSE,162,0.0,5.0,94,0.09,,,0.18,weatherlink.com 1.10,2013-10-11 07:36:00,
2013-10-11 03:51:00,75.6,74.0,29.84,SSE,162,0.0,1.0,94,0.03,,,0.18,weatherlink.com 1.10,2013-10-11 07:51:00,
2013-10-11 04:06:00,75.8,74.0,29.84,SE,145,0.0,5.0,94,0.04,,,0.19,weatherlink.com 1.10,2013-10-11 08:06:00,
2013-10-11 04:21:00,75.9,74.0,29.84,ESE,115,0.0,3.0,93,0.04,,,0.19,weatherlink.com 1.10,2013-10-11 08:21:00,
2013-10-11 04:36:00,75.9,73.0,29.84,ESE,111,0.0,1.0,91,0.01,,,0.19,weatherlink.com 1.10,2013-10-11 08:36:00,
2013-10-11 04:51:00,76.1,74.0,29.84,ESE,123,0.0,1.0,92,0.01,,,0.19,weatherlink.com 1.10,2013-10-11 08:51:00,
2013-10-11 05:06:00,76.2,74.0,29.84,SE,138,0.0,2.0,92,0.00,,,0.19,weatherlink.com 1.10,2013-10-11 09:06:00,
2013-10-11 05:22:00,75.9,74.0,29.84,SSE,160,0.0,1.0,93,0.00,,,0.19,weatherlink.com 1.10,2013-10-11 09:22:00,
2013-10-11 05:37:00,75.5,73.0,29.84,SSE,160,0.0,0.0,93,0.00,,,0.19,weatherlink.com 1.10,2013-10-11 09:37:00,
2013-10-11 05:52:00,75.6,74.0,29.85,SSE,160,0.0,1.0,94,0.00,,,0.19,weatherlink.com 1.10,2013-10-11 09:52:00,
2013-10-11 06:07:00,75.5,74.0,29.85,SSE,160,0.0,1.0,94,0.00,,,0.19,weatherlink.com 1.10,2013-10-11 10:07:00,
2013-10-11 06:22:00,75.4,74.0,29.86,SSE,161,0.0,0.0,94,0.00,,,0.19,weatherlink.com 1.10,2013-10-11 10:22:00,
2013-10-11 06:37:00,75.3,74.0,29.86,SSE,160,0.0,0.0,95,0.00,,,0.19,weatherlink.com 1.10,2013-10-11 10:37:00,
2013-10-11 06:52:00,75.2,74.0,29.87,SSE,150,0.0,2.0,95,0.00,,,0.19,weatherlink.com 1.10,2013-10-11 10:52:00,
2013-10-11 07:07:00,75.1,74.0,29.88,East,99,1.0,2.0,95,0.00,,,0.19,weatherlink.com 1.10,2013-10-11 11:07:00,
2013-10-11 07:22:00,75.9,75.0,29.87,SSW,203,0.0,6.0,96,0.06,,,0.25,weatherlink.com 1.10,2013-10-11 11:22:00,
2013-10-11 07:37:00,78.5,77.0,29.88,WSW,248,0.0,1.0,95,0.06,,,0.25,weatherlink.com 1.10,2013-10-11 11:37:00,
2013-10-11 07:52:00,82.3,77.0,29.88,WSW,245,0.0,1.0,85,0.06,,,0.25,weatherlink.com 1.10,2013-10-11 11:52:00,
2013-10-11 08:07:00,82.5,77.0,29.88,WSW,245,0.0,1.0,83,0.06,,,0.25,weatherlink.com 1.10,2013-10-11 12:07:00,
2013-10-11 08:22:00,81.7,76.0,29.89,WSW,245,0.0,1.0,83,0.00,,,0.25,weatherlink.com 1.10,2013-10-11 12:22:00,
2013-10-11 08:37:00,81.4,77.0,29.89,West,271,0.0,1.0,87,0.00,,,0.25,weatherlink.com 1.10,2013-10-11 12:37:00,
2013-10-11 08:52:00,82.5,78.0,29.89,WSW,247,0.0,1.0,85,0.00,,,0.25,weatherlink.com 1.10,2013-10-11 12:52:00,
2013-10-11 09:07:00,85.3,79.0,29.90,WSW,248,0.0,1.0,80,0.00,,,0.25,weatherlink.com 1.10,2013-10-11 13:07:00,
2013-10-11 09:37:00,86.0,78.0,29.90,East,89,6.0,9.0,76,0.00,,,0.25,weatherlink.com 1.10,2013-10-11 13:37:00,
2013-10-11 09:52:00,86.5,78.0,29.89,ESE,107,0.0,7.0,75,0.00,,,0.25,weatherlink.com 1.10,2013-10-11 13:52:00,
2013-10-11 10:07:00,86.5,78.0,29.90,ENE,77,2.0,10.0,75,0.00,,,0.25,weatherlink.com 1.10,2013-10-11 14:07:00,
2013-10-11 10:22:00,83.4,76.0,29.90,SE,129,2.0,9.0,77,0.00,,,0.25,weatherlink.com 1.10,2013-10-11 14:22:00,
2013-10-11 10:37:00,85.1,76.0,29.89,East,87,4.0,7.0,75,0.00,,,0.25,weatherlink.com 1.10,2013-10-11 14:37:00,
2013-10-11 10:52:00,87.5,77.0,29.89,NE,56,5.0,10.0,72,0.00,,,0.25,weatherlink.com 1.10,2013-10-11 14:52:00,
2013-10-11 11:07:00,86.8,77.0,29.88,East,100,6.0,7.0,72,0.00,,,0.25,weatherlink.com 1.10,2013-10-11 15:07:00,
2013-10-11 11:22:00,87.0,76.0,29.88,ESE,107,13.0,13.0,70,0.00,,,0.25,weatherlink.com 1.10,2013-10-11 15:22:00,
2013-10-11 11:37:00,87.1,76.0,29.87,ESE,108,4.0,11.0,70,0.00,,,0.25,weatherlink.com 1.10,2013-10-11 15:37:00,
2013-10-11 11:52:00,86.9,76.0,29.87,ESE,110,6.0,7.0,69,0.00,,,0.25,weatherlink.com 1.10,2013-10-11 15:52:00,
2013-10-11 12:07:00,86.9,76.0,29.86,NE,53,5.0,9.0,70,0.00,,,0.25,weatherlink.com 1.10,2013-10-11 16:07:00,
2013-10-11 12:22:00,86.8,76.0,29.86,ENE,78,4.0,8.0,69,0.00,,,0.25,weatherlink.com 1.10,2013-10-11 16:22:00,
2013-10-11 12:37:00,87.8,76.0,29.85,East,91,2.0,7.0,68,0.00,,,0.25,weatherlink.com 1.10,2013-10-11 16:37:00,
2013-10-11 12:52:00,89.0,76.0,29.85,SE,141,1.0,8.0,65,0.00,,,0.25,weatherlink.com 1.10,2013-10-11 16:52:00,
2013-10-11 13:07:00,88.3,76.0,29.84,NE,50,3.0,8.0,66,0.00,,,0.25,weatherlink.com 1.10,2013-10-11 17:07:00,
2013-10-11 13:22:00,87.5,75.0,29.84,NE,41,4.0,10.0,67,0.00,,,0.25,weatherlink.com 1.10,2013-10-11 17:22:00,
2013-10-11 13:37:00,88.0,76.0,29.83,ESE,113,4.0,9.0,67,0.00,,,0.25,weatherlink.com 1.10,2013-10-11 17:37:00,
2013-10-11 13:53:00,88.3,76.0,29.83,ESE,113,4.0,9.0,66,0.00,,,0.25,weatherlink.com 1.10,2013-10-11 17:53:00,
2013-10-11 14:08:00,87.9,76.0,29.83,ESE,102,4.0,9.0,67,0.00,,,0.25,weatherlink.com 1.10,2013-10-11 18:08:00,
2013-10-11 14:23:00,88.7,76.0,29.83,East,97,4.0,9.0,66,0.00,,,0.25,weatherlink.com 1.10,2013-10-11 18:23:00,
2013-10-11 14:38:00,88.2,76.0,29.82,NE,53,4.0,9.0,67,0.00,,,0.25,weatherlink.com 1.10,2013-10-11 18:38:00,
2013-10-11 14:53:00,87.4,76.0,29.82,ESE,104,1.0,10.0,68,0.00,,,0.25,weatherlink.com 1.10,2013-10-11 18:53:00,
2013-10-11 15:08:00,88.2,76.0,29.82,ENE,70,5.0,7.0,68,0.00,,,0.25,weatherlink.com 1.10,2013-10-11 19:08:00,
2013-10-11 15:23:00,87.7,76.0,29.82,East,90,6.0,8.0,68,0.00,,,0.25,weatherlink.com 1.10,2013-10-11 19:23:00,
2013-10-11 15:38:00,87.1,78.0,29.82,NE,34,5.0,10.0,73,0.00,,,0.25,weatherlink.com 1.10,2013-10-11 19:38:00,
2013-10-11 15:53:00,87.5,77.0,29.82,NE,39,6.0,10.0,71,0.00,,,0.25,weatherlink.com 1.10,2013-10-11 19:53:00,
2013-10-11 16:08:00,86.9,76.0,29.83,NE,51,5.0,11.0,71,0.00,,,0.25,weatherlink.com 1.10,2013-10-11 20:08:00,
2013-10-11 16:23:00,85.6,78.0,29.82,NE,44,6.0,11.0,77,0.00,,,0.25,weatherlink.com 1.10,2013-10-11 20:23:00,
2013-10-11 16:38:00,84.8,78.0,29.82,ENE,77,5.0,9.0,79,0.00,,,0.25,weatherlink.com 1.10,2013-10-11 20:38:00,
2013-10-11 16:53:00,84.3,78.0,29.82,ENE,73,5.0,8.0,80,0.00,,,0.25,weatherlink.com 1.10,2013-10-11 20:53:00,
2013-10-11 17:08:00,83.9,77.0,29.82,ESE,104,6.0,7.0,80,0.00,,,0.25,weatherlink.com 1.10,2013-10-11 21:08:00,
2013-10-11 17:23:00,83.4,77.0,29.83,NE,50,4.0,8.0,80,0.00,,,0.25,weatherlink.com 1.10,2013-10-11 21:23:00,
2013-10-11 17:38:00,83.1,77.0,29.84,NE,50,3.0,7.0,82,0.00,,,0.25,weatherlink.com 1.10,2013-10-11 21:38:00,
2013-10-11 17:53:00,82.8,77.0,29.84,ENE,63,3.0,7.0,83,0.00,,,0.25,weatherlink.com 1.10,2013-10-11 21:53:00,
2013-10-11 18:08:00,82.5,77.0,29.84,ESE,114,2.0,5.0,84,0.00,,,0.25,weatherlink.com 1.10,2013-10-11 22:08:00,
2013-10-11 18:23:00,82.5,77.0,29.84,East,98,1.0,2.0,84,0.00,,,0.25,weatherlink.com 1.10,2013-10-11 22:23:00,
2013-10-11 18:38:00,82.5,77.0,29.84,East,91,1.0,2.0,84,0.00,,,0.25,weatherlink.com 1.10,2013-10-11 22:38:00,
2013-10-11 18:53:00,82.4,77.0,29.84,ESE,107,0.0,1.0,84,0.00,,,0.25,weatherlink.com 1.10,2013-10-11 22:53:00,
2013-10-11 19:08:00,82.6,77.0,29.85,SE,139,0.0,2.0,84,0.00,,,0.25,weatherlink.com 1.10,2013-10-11 23:08:00,
2013-10-11 19:23:00,82.3,77.0,29.85,SSE,147,0.0,2.0,84,0.00,,,0.25,weatherlink.com 1.10,2013-10-11 23:23:00,
2013-10-11 19:38:00,82.0,77.0,29.86,SSE,152,0.0,1.0,84,0.00,,,0.25,weatherlink.com 1.10,2013-10-11 23:38:00,
2013-10-11 19:53:00,81.7,77.0,29.86,SSE,152,0.0,1.0,84,0.00,,,0.25,weatherlink.com 1.10,2013-10-11 23:53:00,
2013-10-11 20:08:00,81.5,77.0,29.86,SE,139,0.0,1.0,85,0.00,,,0.25,weatherlink.com 1.10,2013-10-12 00:08:00,
2013-10-11 20:23:00,81.1,76.0,29.86,SE,135,0.0,2.0,85,0.00,,,0.25,weatherlink.com 1.10,2013-10-12 00:23:00,
2013-10-11 20:38:00,80.6,76.0,29.86,SSE,150,0.0,2.0,85,0.00,,,0.25,weatherlink.com 1.10,2013-10-12 00:38:00,
2013-10-11 20:53:00,80.4,76.0,29.87,SE,135,1.0,2.0,85,0.00,,,0.25,weatherlink.com 1.10,2013-10-12 00:53:00,
2013-10-11 21:08:00,79.8,75.0,29.88,SSE,150,1.0,4.0,85,0.00,,,0.25,weatherlink.com 1.10,2013-10-12 01:08:00,
2013-10-11 21:23:00,79.4,75.0,29.87,ESE,111,0.0,3.0,86,0.00,,,0.25,weatherlink.com 1.10,2013-10-12 01:23:00,
2013-10-11 21:38:00,79.2,74.0,29.87,SE,127,1.0,3.0,85,0.00,,,0.25,weatherlink.com 1.10,2013-10-12 01:38:00,
2013-10-11 21:53:00,78.9,74.0,29.88,ESE,113,0.0,3.0,85,0.00,,,0.25,weatherlink.com 1.10,2013-10-12 01:53:00,
2013-10-11 22:08:00,78.6,74.0,29.88,ESE,115,0.0,3.0,85,0.00,,,0.25,weatherlink.com 1.10,2013-10-12 02:08:00,
2013-10-11 22:23:00,78.5,74.0,29.88,SE,136,1.0,2.0,85,0.00,,,0.25,weatherlink.com 1.10,2013-10-12 02:23:00,
2013-10-11 22:38:00,78.4,74.0,29.88,SE,135,0.0,1.0,85,0.00,,,0.25,weatherlink.com 1.10,2013-10-12 02:38:00,
2013-10-11 22:53:00,78.1,73.0,29.88,SE,135,0.0,1.0,85,0.00,,,0.25,weatherlink.com 1.10,2013-10-12 02:53:00,
2013-10-11 23:08:00,77.9,74.0,29.88,SE,146,0.0,2.0,86,0.00,,,0.25,weatherlink.com 1.10,2013-10-12 03:08:00,
2013-10-11 23:23:00,77.8,73.0,29.88,SE,146,0.0,1.0,86,0.00,,,0.25,weatherlink.com 1.10,2013-10-12 03:23:00,
2013-10-11 23:38:00,77.6,73.0,29.87,SE,144,1.0,2.0,86,0.00,,,0.25,weatherlink.com 1.10,2013-10-12 03:38:00,
2013-10-11 23:53:00,77.4,73.0,29.87,SE,142,0.0,3.0,87,0.00,,,0.25,weatherlink.com 1.10,2013-10-12 03:53:00,